createdAt,value
2019-02-02T00:01:11.797Z,87.31
2019-02-02T00:04:17.538Z,87.43
2019-02-02T00:07:23.759Z,87.32
2019-02-02T00:10:28.055Z,87.33
2019-02-02T00:13:32.340Z,87.51
2019-02-02T00:16:36.780Z,87.46
2019-02-02T00:19:41.279Z,87.65
2019-02-02T00:22:47.641Z,87.53
2019-02-02T00:25:54.735Z,87.90
2019-02-02T00:29:02.027Z,87.32
2019-02-02T00:32:06.319Z,87.46
2019-02-02T00:35:11.158Z,87.85
2019-02-02T00:38:15.439Z,87.33
2019-02-02T00:41:19.721Z,87.71
2019-02-02T00:44:27.402Z,88.07
2019-02-02T00:47:31.694Z,88.11
2019-02-02T00:50:36.113Z,88.00
2019-02-02T00:53:40.389Z,87.83
2019-02-02T00:56:44.842Z,87.65
2019-02-02T00:59:49.183Z,87.96
2019-02-02T01:02:55.471Z,88.00
2019-02-02T01:05:59.489Z,88.37
2019-02-02T01:09:06.870Z,88.39
2019-02-02T01:12:11.154Z,87.90
2019-02-02T01:15:16.444Z,88.19
2019-02-02T01:18:20.786Z,88.30
2019-02-02T01:21:25.075Z,88.41
2019-02-02T01:24:29.450Z,88.12
2019-02-02T01:27:35.555Z,88.20
2019-02-02T01:30:40.017Z,88.00
2019-02-02T01:33:44.337Z,87.85
2019-02-02T01:36:48.672Z,88.10
2019-02-02T01:39:53.075Z,87.56
2019-02-02T01:42:57.608Z,87.49
2019-02-02T01:46:01.962Z,87.84
2019-02-02T01:49:06.429Z,88.01
2019-02-02T01:52:12.416Z,87.33
2019-02-02T01:55:17.215Z,87.24
2019-02-02T01:58:21.497Z,87.49
2019-02-02T02:01:28.107Z,87.78
2019-02-02T02:04:32.713Z,87.60
2019-02-02T02:07:37.001Z,87.23
2019-02-02T02:10:41.287Z,87.01
2019-02-02T02:13:45.792Z,87.45
2019-02-02T02:16:50.110Z,87.02
2019-02-02T02:19:54.632Z,87.18
2019-02-02T02:22:59.132Z,87.42
2019-02-02T02:26:03.574Z,87.47
2019-02-02T02:29:08.239Z,87.59
2019-02-02T02:32:12.535Z,87.24
2019-02-02T02:35:17.095Z,87.72
2019-02-02T02:38:21.439Z,87.22
2019-02-02T02:41:25.723Z,87.33
2019-02-02T02:44:30.003Z,87.07
2019-02-02T02:47:34.335Z,86.90
2019-02-02T02:50:38.621Z,86.93
2019-02-02T02:53:43.015Z,87.52
2019-02-02T02:56:47.307Z,87.96
2019-02-02T02:59:51.621Z,87.37
2019-02-02T03:02:55.904Z,87.92
2019-02-02T03:06:00.246Z,87.47
2019-02-02T03:09:07.455Z,87.04
2019-02-02T03:12:11.885Z,86.81
2019-02-02T03:15:16.987Z,87.19
2019-02-02T03:18:21.375Z,87.24
2019-02-02T03:21:25.812Z,87.63
2019-02-02T03:24:30.107Z,87.39
2019-02-02T03:27:34.383Z,87.40
2019-02-02T03:30:38.698Z,87.40
2019-02-02T03:33:43.160Z,87.50
2019-02-02T03:36:47.437Z,87.37
2019-02-02T03:39:53.472Z,87.40
2019-02-02T03:42:57.708Z,87.78
2019-02-02T03:46:01.989Z,87.69
2019-02-02T03:49:06.275Z,87.64
2019-02-02T03:52:10.576Z,87.46
2019-02-02T03:55:15.423Z,87.60
2019-02-02T03:58:34.010Z,87.42
2019-02-02T04:01:25.826Z,87.68
2019-02-02T04:04:30.099Z,87.32
2019-02-02T04:07:34.377Z,87.20
2019-02-02T04:10:38.659Z,86.88
2019-02-02T04:13:42.930Z,87.21
2019-02-02T04:16:47.236Z,86.94
2019-02-02T04:19:51.555Z,87.47
2019-02-02T04:22:55.860Z,87.26
2019-02-02T04:26:00.164Z,86.70
2019-02-02T04:29:04.754Z,87.30
2019-02-02T04:32:10.473Z,86.86
2019-02-02T04:35:15.079Z,87.52
2019-02-02T04:38:19.383Z,87.23
2019-02-02T04:41:23.758Z,87.22
2019-02-02T04:44:28.022Z,88.03
2019-02-02T04:47:32.369Z,87.86
2019-02-02T04:50:39.133Z,87.89
2019-02-02T04:53:43.418Z,87.11
2019-02-02T04:56:47.927Z,87.42
2019-02-02T04:59:52.203Z,87.36
2019-02-02T05:02:56.670Z,87.64
2019-02-02T05:06:00.944Z,87.30
2019-02-02T05:09:08.145Z,87.00
2019-02-02T05:12:12.452Z,87.04
2019-02-02T05:15:16.989Z,87.40
2019-02-02T05:18:21.290Z,87.05
2019-02-02T05:21:25.794Z,87.50
2019-02-02T05:24:30.124Z,87.42
2019-02-02T05:27:34.583Z,87.12
2019-02-02T05:30:38.901Z,87.65
2019-02-02T05:33:43.201Z,87.25
2019-02-02T05:36:47.656Z,87.25
2019-02-02T05:39:52.067Z,87.40
2019-02-02T05:42:56.376Z,87.52
2019-02-02T05:46:00.689Z,87.79
2019-02-02T05:49:05.049Z,88.03
2019-02-02T05:52:09.323Z,87.31
2019-02-02T05:55:17.524Z,87.34
2019-02-02T05:58:24.242Z,87.78
2019-02-02T06:01:30.065Z,87.80
2019-02-02T06:04:37.020Z,87.61
2019-02-02T06:07:41.647Z,87.64
2019-02-02T06:10:46.071Z,88.17
2019-02-02T06:13:50.355Z,88.16
2019-02-02T06:16:54.657Z,88.68
2019-02-02T06:19:58.953Z,88.86
2019-02-02T06:23:05.713Z,88.69
2019-02-02T06:26:11.460Z,88.48
2019-02-02T06:29:15.860Z,89.00
2019-02-02T06:32:20.243Z,89.13
2019-02-02T06:35:24.543Z,88.94
2019-02-02T06:38:28.824Z,89.09
2019-02-02T06:41:33.101Z,88.82
2019-02-02T06:44:37.424Z,89.41
2019-02-02T06:47:42.008Z,89.40
2019-02-02T06:50:46.313Z,89.35
2019-02-02T06:53:53.468Z,89.44
2019-02-02T06:56:57.815Z,89.59
2019-02-02T07:00:15.727Z,89.24
2019-02-02T07:03:13.579Z,89.61
2019-02-02T07:06:18.146Z,90.15
2019-02-02T07:09:22.439Z,90.30
2019-02-02T07:12:26.734Z,90.04
2019-02-02T07:15:31.152Z,90.19
2019-02-02T07:18:35.666Z,90.45
2019-02-02T07:21:39.961Z,90.70
2019-02-02T07:24:44.387Z,90.69
2019-02-02T07:27:48.663Z,90.71
2019-02-02T07:30:52.939Z,90.73
2019-02-02T07:33:57.229Z,90.76
2019-02-02T07:37:01.536Z,90.69
2019-02-02T07:40:07.794Z,90.72
2019-02-02T07:43:12.076Z,90.68
2019-02-02T07:46:16.365Z,90.65
2019-02-02T07:49:20.642Z,90.61
2019-02-02T07:52:24.923Z,90.49
2019-02-02T07:55:30.413Z,90.30
2019-02-02T07:58:34.711Z,89.41
2019-02-02T08:01:39.016Z,89.75
2019-02-02T08:04:43.319Z,89.73
2019-02-02T08:07:47.639Z,89.93
2019-02-02T08:10:54.966Z,89.94
2019-02-02T08:13:57.949Z,90.03
2019-02-02T08:17:02.358Z,89.83
2019-02-02T08:20:10.548Z,89.03
2019-02-02T08:23:14.917Z,88.93
2019-02-02T08:26:19.207Z,88.57
2019-02-02T08:29:23.670Z,88.29
2019-02-02T08:32:27.975Z,88.74
2019-02-02T08:35:32.459Z,88.20
2019-02-02T08:38:36.826Z,88.75
2019-02-02T08:41:41.153Z,88.94
2019-02-02T08:44:45.472Z,88.25
2019-02-02T08:47:49.857Z,88.04
2019-02-02T08:50:54.153Z,87.90
2019-02-02T08:53:58.448Z,88.00
2019-02-02T08:57:02.827Z,87.88
2019-02-02T09:00:10.060Z,88.03
2019-02-02T09:03:15.866Z,88.27
2019-02-02T09:06:20.322Z,88.29
2019-02-02T09:09:24.625Z,88.10
2019-02-02T09:12:28.923Z,87.70
2019-02-02T09:15:33.215Z,87.99
2019-02-02T09:18:37.703Z,88.11
2019-02-02T09:21:41.977Z,87.98
2019-02-02T09:24:46.252Z,87.99
2019-02-02T09:27:50.550Z,88.03
2019-02-02T09:30:54.928Z,88.13
2019-02-02T09:33:59.226Z,88.25
2019-02-02T09:37:03.629Z,87.99
2019-02-02T09:40:09.113Z,87.21
2019-02-02T09:43:16.163Z,87.52
2019-02-02T09:46:20.620Z,87.79
2019-02-02T09:49:24.931Z,87.69
2019-02-02T09:52:29.457Z,87.79
2019-02-02T09:55:33.750Z,87.34
2019-02-02T09:58:38.048Z,86.56
2019-02-02T10:01:42.538Z,86.91
2019-02-02T10:04:46.829Z,87.08
2019-02-02T10:07:51.110Z,86.86
2019-02-02T10:10:55.576Z,86.72
2019-02-02T10:13:59.893Z,86.76
2019-02-02T10:17:04.505Z,86.61
2019-02-02T10:20:10.927Z,86.69
2019-02-02T10:23:15.493Z,85.99
2019-02-02T10:26:19.906Z,86.26
2019-02-02T10:29:24.245Z,86.29
2019-02-02T10:32:28.531Z,85.71
2019-02-02T10:35:33.058Z,85.74
2019-02-02T10:38:37.455Z,85.53
2019-02-02T10:41:41.883Z,85.41
2019-02-02T10:44:47.447Z,85.50
2019-02-02T10:47:51.857Z,84.15
2019-02-02T10:50:56.358Z,84.70
2019-02-02T10:54:00.680Z,84.84
2019-02-02T10:57:05.082Z,84.55
2019-02-02T11:00:16.282Z,84.32
2019-02-02T11:03:20.573Z,83.98
2019-02-02T11:06:25.038Z,83.65
2019-02-02T11:09:30.793Z,83.78
2019-02-02T11:12:35.733Z,84.13
2019-02-02T11:15:40.348Z,84.43
2019-02-02T11:18:46.389Z,84.23
2019-02-02T11:21:52.617Z,83.92
2019-02-02T11:24:57.140Z,83.67
2019-02-02T11:28:01.706Z,83.11
2019-02-02T11:31:06.798Z,83.02
2019-02-02T11:34:11.096Z,83.13
2019-02-02T11:37:16.789Z,83.77
2019-02-02T11:40:24.788Z,83.98
2019-02-02T11:43:33.780Z,83.91
2019-02-02T11:46:41.678Z,83.37
2019-02-02T11:49:55.764Z,82.95
2019-02-02T11:53:00.326Z,83.26
2019-02-02T11:56:05.111Z,83.34
2019-02-02T11:59:09.620Z,83.01
2019-02-02T12:02:14.946Z,83.55
2019-02-02T12:05:19.595Z,83.06
2019-02-02T12:08:24.034Z,83.10
2019-02-02T12:11:28.457Z,83.19
2019-02-02T12:14:35.761Z,83.05
2019-02-02T12:17:40.223Z,83.02
2019-02-02T12:20:45.602Z,83.72
2019-02-02T12:23:49.878Z,83.78
2019-02-02T12:26:54.157Z,83.29
2019-02-02T12:29:58.436Z,83.92
2019-02-02T12:33:03.670Z,84.32
2019-02-02T12:36:08.099Z,84.27
2019-02-02T12:39:12.594Z,83.54
2019-02-02T12:42:16.919Z,83.71
2019-02-02T12:45:26.848Z,83.68
2019-02-02T12:48:32.393Z,83.39
2019-02-02T12:51:36.899Z,83.92
2019-02-02T12:54:41.444Z,84.15
2019-02-02T12:57:45.850Z,83.34
2019-02-02T13:00:50.367Z,83.28
2019-02-02T13:04:01.864Z,82.88
2019-02-02T13:07:01.223Z,83.02
2019-02-02T13:10:07.043Z,83.11
2019-02-02T13:13:11.503Z,83.60
2019-02-02T13:16:15.796Z,83.91
2019-02-02T13:19:20.140Z,84.13
2019-02-02T13:22:24.518Z,84.15
2019-02-02T13:25:29.043Z,84.22
2019-02-02T13:28:33.362Z,84.39
2019-02-02T13:31:37.647Z,84.16
2019-02-02T13:34:42.087Z,84.25
2019-02-02T13:37:46.588Z,83.95
2019-02-02T13:40:50.938Z,84.09
2019-02-02T13:43:55.299Z,83.99
2019-02-02T13:46:59.622Z,83.95
2019-02-02T13:50:04.620Z,83.62
2019-02-02T13:53:10.004Z,83.75
2019-02-02T13:56:14.397Z,83.55
2019-02-02T13:59:18.761Z,83.21
2019-02-02T14:02:23.050Z,83.45
2019-02-02T14:05:27.507Z,83.55
2019-02-02T14:08:31.938Z,83.57
2019-02-02T14:11:36.429Z,83.68
2019-02-02T14:14:40.749Z,83.08
2019-02-02T14:17:48.267Z,83.33
2019-02-02T14:20:52.683Z,83.47
2019-02-02T14:23:57.206Z,83.43
2019-02-02T14:27:01.519Z,83.52
2019-02-02T14:30:09.233Z,83.56
2019-02-02T14:33:14.582Z,83.24
2019-02-02T14:36:19.093Z,83.10
2019-02-02T14:39:23.406Z,83.22
2019-02-02T14:42:27.681Z,82.69
2019-02-02T14:45:32.004Z,82.87
2019-02-02T14:48:36.367Z,83.00
2019-02-02T14:51:40.842Z,82.91
2019-02-02T14:54:45.369Z,82.81
2019-02-02T14:57:49.715Z,82.84
2019-02-02T15:00:54.186Z,82.86
2019-02-02T15:03:58.519Z,82.08
2019-02-02T15:07:02.942Z,82.34
2019-02-02T15:10:08.397Z,82.44
2019-02-02T15:13:12.811Z,82.54
2019-02-02T15:16:17.127Z,82.39
2019-02-02T15:19:21.403Z,82.43
2019-02-02T15:22:25.706Z,82.43
2019-02-02T15:25:30.082Z,82.13
2019-02-02T15:28:34.379Z,82.26
2019-02-02T15:31:38.681Z,82.37
2019-02-02T15:34:42.989Z,82.11
2019-02-02T15:37:50.781Z,82.07
2019-02-02T15:40:59.228Z,82.01
2019-02-02T15:44:01.311Z,81.80
2019-02-02T15:47:05.774Z,81.78
2019-02-02T15:50:12.292Z,82.15
2019-02-02T15:53:19.647Z,82.27
2019-02-02T15:56:23.960Z,82.39
2019-02-02T15:59:29.819Z,82.42
2019-02-02T16:02:34.090Z,82.38
2019-02-02T16:05:38.589Z,82.35
2019-02-02T16:08:42.971Z,82.72
2019-02-02T16:11:47.307Z,82.82
2019-02-02T16:14:51.715Z,82.73
2019-02-02T16:17:59.033Z,83.24
2019-02-02T16:21:03.364Z,83.42
2019-02-02T16:24:07.777Z,83.55
2019-02-02T16:27:12.049Z,84.15
2019-02-02T16:30:19.033Z,84.38
2019-02-02T16:33:23.342Z,84.54
2019-02-02T16:36:27.652Z,84.58
2019-02-02T16:39:32.033Z,84.93
2019-02-02T16:42:40.765Z,85.27
2019-02-02T16:45:45.163Z,85.42
2019-02-02T16:48:49.551Z,85.40
2019-02-02T16:51:53.939Z,85.66
2019-02-02T16:54:58.253Z,85.83
2019-02-02T16:58:02.563Z,86.28
2019-02-02T17:01:06.999Z,86.49
2019-02-02T17:04:15.791Z,86.44
2019-02-02T17:07:18.043Z,86.73
2019-02-02T17:10:24.743Z,86.72
2019-02-02T17:13:29.016Z,86.88
2019-02-02T17:16:34.871Z,87.09
2019-02-02T17:19:39.161Z,87.66
2019-02-02T17:22:43.994Z,87.91
2019-02-02T17:25:48.496Z,87.91
2019-02-02T17:28:52.980Z,88.15
2019-02-02T17:31:58.630Z,88.36
2019-02-02T17:35:04.745Z,88.64
2019-02-02T17:38:09.243Z,88.84
2019-02-02T17:41:13.547Z,89.12
2019-02-02T17:44:17.893Z,89.42
2019-02-02T17:47:22.292Z,89.53
2019-02-02T17:50:26.818Z,89.43
2019-02-02T17:53:31.115Z,89.30
2019-02-02T17:56:35.481Z,89.47
2019-02-02T17:59:42.733Z,89.73
2019-02-02T18:02:47.054Z,89.26
2019-02-02T18:05:51.403Z,89.11
2019-02-02T18:08:55.727Z,89.53
2019-02-02T18:12:00.078Z,89.68
2019-02-02T18:15:05.619Z,89.60
2019-02-02T18:18:10.256Z,89.60
2019-02-02T18:21:14.871Z,89.72
2019-02-02T18:24:19.199Z,89.60
2019-02-02T18:27:23.631Z,89.78
2019-02-02T18:30:28.156Z,89.85
2019-02-02T18:33:32.578Z,89.54
2019-02-02T18:36:36.977Z,89.83
2019-02-02T18:39:41.296Z,89.94
2019-02-02T18:42:45.796Z,89.71
2019-02-02T18:45:50.248Z,89.93
2019-02-02T18:48:54.687Z,89.96
2019-02-02T18:51:58.979Z,89.77
2019-02-02T18:55:03.343Z,89.61
2019-02-02T18:58:08.080Z,89.74
2019-02-02T19:01:12.459Z,89.83
2019-02-02T19:04:16.912Z,89.83
2019-02-02T19:07:21.351Z,89.88
2019-02-02T19:10:28.720Z,89.80
2019-02-02T19:13:33.005Z,89.92
2019-02-02T19:16:37.340Z,90.31
2019-02-02T19:19:41.631Z,90.51
2019-02-02T19:22:45.932Z,90.77
2019-02-02T19:25:50.246Z,91.01
2019-02-02T19:28:54.649Z,91.24
2019-02-02T19:31:59.463Z,91.29
2019-02-02T19:35:15.259Z,91.42
2019-02-02T19:38:10.087Z,91.17
2019-02-02T19:41:14.434Z,90.83
2019-02-02T19:44:21.863Z,90.73
2019-02-02T19:47:26.198Z,91.06
2019-02-02T19:50:30.492Z,91.43
2019-02-02T19:53:34.880Z,91.38
2019-02-02T19:56:39.293Z,91.17
2019-02-02T19:59:43.667Z,90.91
2019-02-02T20:02:47.987Z,90.92
2019-02-02T20:05:53.967Z,90.89
2019-02-02T20:08:58.268Z,90.62
2019-02-02T20:12:02.591Z,89.66
2019-02-02T20:15:09.136Z,89.88
2019-02-02T20:18:15.261Z,89.79
2019-02-02T20:21:19.618Z,89.88
2019-02-02T20:24:23.976Z,89.94
2019-02-02T20:27:28.312Z,89.84
2019-02-02T20:30:33.163Z,89.92
2019-02-02T20:33:37.542Z,90.01
2019-02-02T20:36:42.108Z,89.99
2019-02-02T20:39:46.550Z,89.76
2019-02-02T20:42:51.038Z,89.62
2019-02-02T20:45:55.490Z,89.71
2019-02-02T20:49:01.170Z,89.36
2019-02-02T20:52:05.838Z,89.41
2019-02-02T20:55:12.988Z,89.68
2019-02-02T20:58:17.399Z,89.61
2019-02-02T21:01:21.702Z,89.69
2019-02-02T21:04:27.377Z,89.83
2019-02-02T21:07:32.292Z,90.05
2019-02-02T21:10:36.616Z,90.01
2019-02-02T21:13:40.932Z,90.20
2019-02-02T21:16:45.359Z,90.34
2019-02-02T21:19:49.685Z,90.44
2019-02-02T21:22:54.344Z,90.06
2019-02-02T21:25:58.674Z,89.83
2019-02-02T21:29:03.031Z,89.86
2019-02-02T21:32:07.490Z,89.72
2019-02-02T21:35:12.039Z,89.61
2019-02-02T21:38:16.743Z,89.39
2019-02-02T21:41:21.166Z,89.70
2019-02-02T21:44:25.661Z,89.77
2019-02-02T21:47:32.062Z,89.87
2019-02-02T21:50:36.433Z,90.39
2019-02-02T21:53:40.846Z,90.40
2019-02-02T21:56:45.162Z,90.18
2019-02-02T21:59:52.532Z,90.21
2019-02-02T22:02:59.185Z,90.33
2019-02-02T22:06:14.860Z,90.78
2019-02-02T22:09:09.817Z,91.00
2019-02-02T22:12:14.130Z,91.60
2019-02-02T22:15:24.843Z,91.83
2019-02-02T22:18:29.618Z,91.93
2019-02-02T22:21:34.210Z,91.80
2019-02-02T22:24:38.647Z,92.22
2019-02-02T22:27:43.070Z,92.41
2019-02-02T22:30:47.410Z,92.83
2019-02-02T22:33:51.783Z,93.11
2019-02-02T22:36:56.089Z,93.46
2019-02-02T22:40:00.411Z,93.51
2019-02-02T22:43:07.362Z,93.53
2019-02-02T22:46:11.756Z,93.57
2019-02-02T22:49:16.381Z,93.51
2019-02-02T22:52:23.844Z,93.59
2019-02-02T22:55:28.230Z,93.58
2019-02-02T22:58:32.569Z,93.36
2019-02-02T23:01:43.033Z,93.37
2019-02-02T23:05:31.289Z,93.45
2019-02-02T23:09:05.193Z,93.51
2019-02-02T23:12:24.659Z,93.38
2019-02-02T23:16:13.287Z,93.40
2019-02-02T23:19:17.955Z,93.25
2019-02-02T23:22:22.267Z,93.33
2019-02-02T23:25:26.623Z,93.09
2019-02-02T23:28:30.934Z,93.27
2019-02-02T23:31:35.399Z,93.37
2019-02-02T23:34:39.855Z,93.33
2019-02-02T23:37:44.200Z,93.08
2019-02-02T23:40:48.509Z,93.07
2019-02-02T23:43:52.842Z,92.86
2019-02-02T23:46:57.167Z,92.95
2019-02-02T23:50:01.499Z,93.35
2019-02-02T23:53:05.881Z,93.50
2019-02-02T23:56:10.190Z,93.38
2019-02-02T23:59:14.581Z,93.54
